Huvudsida
METAR-TAF:

METAR-TAF

Flygplatser :

Kuwaits internationella flygplats

Kuwait, Kuwait

latitud: 29-13N, longitud: 047-59E, höjd: 55 m

Aktuellt väderrapport

Denna rapport gjordes för 42 minuter sedan, klockan 22:00 UTC
Stilla vind
Temperatur 17°C
Fuktighet 55%
Tryck 1014 hPa
Sikt: 7000 m

METAR: OKBK 152200Z 00000KT 7000 NSC 17/08 Q1014 NOSIG

Tid: 01:42 (22:42 UTC)

Väderprognos

Denna rapport gjordes för 5 timmar och 57 minuter sedan, klockan 16:45 UTC
Prognos gäller från 15 kl. 18 UTC till 16 kl. 24 UTC
Vind 3 kt varierande vindriktning
Sikt: 6000 m
Spridda moln på en höjd av 4000 ft
Brutna moln på en höjd av 8000 ft
Temporärt
från 16 kl. 03 UTC till 16 kl. 12 UTC
Vind 10 kt från syd i byarna ända upp till 20 kt
Sikt: 4000 m
Få moln på en höjd av 3000 ft, Cumulonimbus.

TAF: OKBK 151645Z 1518/1624 VRB03KT 6000 SCT040 BKN080 TEMPO 1603/1612 18010G20KT 4000 BLDU/TSRA FEW030CB

Aktuella väderrapporter och prognoser från 4000 flygplatser (METAR- och TAF-rapporter).

De tillgängliga stationerna syns som gula och röda prickar på kartan.

För musen över prickarna för att se namnen på stationerna.

Klicka sedan för att få väderrapporter och prognoser.

För att ändra kartan: Klicka på de gröna knapparna med ett svart kors på för att zooma in; den gröna knappen med ett streck på för att zooma ut; eller på de gröna pilarna för angränsande kartor.


METAR-TAF: